createdAt,value
2024-02-14T00:01:11.789Z,2.63
2024-02-14T00:03:40.211Z,3.53
2024-02-14T00:06:08.752Z,3.50
2024-02-14T00:08:36.961Z,2.30
2024-02-14T00:11:05.269Z,1.27
2024-02-14T00:13:35.524Z,1.13
2024-02-14T00:16:03.929Z,1.73
2024-02-14T00:18:33.431Z,1.00
2024-02-14T00:21:01.966Z,0.90
2024-02-14T00:23:30.384Z,1.60
2024-02-14T00:25:58.415Z,3.47
2024-02-14T00:28:28.325Z,1.97
2024-02-14T00:30:56.461Z,1.73
2024-02-14T00:33:24.646Z,0.83
2024-02-14T00:35:54.260Z,1.40
2024-02-14T00:38:22.382Z,1.00
2024-02-14T00:40:50.332Z,1.10
2024-02-14T00:43:18.494Z,1.20
2024-02-14T00:45:46.766Z,1.67
2024-02-14T00:48:14.965Z,2.27
2024-02-14T00:50:43.425Z,2.50
2024-02-14T00:53:13.279Z,2.30
2024-02-14T00:55:41.217Z,2.67
2024-02-14T00:58:09.352Z,2.60
2024-02-14T01:00:37.333Z,1.77
2024-02-14T01:03:05.914Z,1.93
2024-02-14T01:05:34.089Z,1.70
2024-02-14T01:08:02.511Z,1.20
2024-02-14T01:10:31.855Z,1.30
2024-02-14T01:12:59.863Z,1.23
2024-02-14T01:15:27.812Z,1.20
2024-02-14T01:17:55.993Z,1.20
2024-02-14T01:20:24.101Z,1.40
2024-02-14T01:22:52.146Z,1.30
2024-02-14T01:25:20.091Z,1.47
2024-02-14T01:27:50.313Z,1.20
2024-02-14T01:30:19.318Z,1.13
2024-02-14T01:32:47.784Z,1.23
2024-02-14T01:35:15.790Z,1.40
2024-02-14T01:37:45.183Z,1.27
2024-02-14T01:40:14.176Z,2.27
2024-02-14T01:42:42.162Z,2.87
2024-02-14T01:45:12.046Z,1.30
2024-02-14T01:47:42.754Z,1.30
2024-02-14T01:50:12.933Z,1.30
2024-02-14T01:52:42.307Z,1.20
2024-02-14T01:55:10.959Z,2.33
2024-02-14T01:57:41.471Z,2.53
2024-02-14T02:00:16.664Z,3.33
2024-02-14T02:02:45.074Z,2.70
2024-02-14T02:05:18.178Z,2.63
2024-02-14T02:07:49.389Z,2.33
2024-02-14T02:10:18.036Z,2.07
2024-02-14T02:12:46.105Z,1.90
2024-02-14T02:15:15.737Z,1.80
2024-02-14T02:17:47.049Z,1.80
2024-02-14T02:20:16.625Z,2.20
2024-02-14T02:22:49.371Z,2.53
2024-02-14T02:25:17.458Z,2.27
2024-02-14T02:27:45.690Z,2.67
2024-02-14T02:30:14.989Z,2.43
2024-02-14T02:32:44.334Z,2.50
2024-02-14T02:35:12.504Z,2.20
2024-02-14T02:37:40.478Z,1.80
2024-02-14T02:40:12.023Z,1.77
2024-02-14T02:42:40.180Z,1.90
2024-02-14T02:45:09.264Z,1.93
2024-02-14T02:47:37.425Z,1.30
2024-02-14T02:50:07.140Z,1.30
2024-02-14T02:52:35.122Z,1.60
2024-02-14T02:55:03.503Z,1.80
2024-02-14T02:57:33.442Z,1.73
2024-02-14T03:00:01.687Z,1.80
2024-02-14T03:02:29.818Z,2.00
2024-02-14T03:04:58.419Z,1.77
2024-02-14T03:07:26.424Z,2.10
2024-02-14T03:09:54.421Z,2.20
2024-02-14T03:12:24.082Z,1.77
2024-02-14T03:14:53.505Z,2.20
2024-02-14T03:17:21.553Z,1.70
2024-02-14T03:19:52.962Z,1.87
2024-02-14T03:22:21.082Z,1.63
2024-02-14T03:24:49.960Z,1.30
2024-02-14T03:27:18.440Z,1.60
2024-02-14T03:29:48.664Z,1.53
2024-02-14T03:32:18.460Z,1.60
2024-02-14T03:34:46.470Z,1.83
2024-02-14T03:37:14.496Z,1.50
2024-02-14T03:39:42.548Z,1.47
2024-02-14T03:42:10.749Z,1.40
2024-02-14T03:44:39.554Z,1.60
2024-02-14T03:47:07.686Z,1.37
2024-02-14T03:49:37.248Z,1.50
2024-02-14T03:52:11.033Z,1.70
2024-02-14T03:54:39.297Z,1.57
2024-02-14T03:57:10.037Z,2.03
2024-02-14T03:59:40.333Z,1.70
2024-02-14T04:02:11.262Z,1.20
2024-02-14T04:04:41.449Z,1.20
2024-02-14T04:07:10.785Z,1.47
2024-02-14T04:09:39.154Z,1.40
2024-02-14T04:12:08.120Z,1.60
2024-02-14T04:14:36.414Z,1.40
2024-02-14T04:17:04.613Z,1.30
2024-02-14T04:19:32.750Z,1.53
2024-02-14T04:22:02.254Z,1.23
2024-02-14T04:24:30.846Z,1.70
2024-02-14T04:26:58.953Z,2.07
2024-02-14T04:29:28.016Z,1.97
2024-02-14T04:31:56.247Z,1.40
2024-02-14T04:34:24.259Z,1.47
2024-02-14T04:36:52.573Z,1.30
2024-02-14T04:39:21.901Z,1.37
2024-02-14T04:41:57.353Z,1.27
2024-02-14T04:44:30.246Z,1.67
2024-02-14T04:46:59.498Z,1.40
2024-02-14T04:49:27.938Z,1.47
2024-02-14T04:51:56.718Z,1.43
2024-02-14T04:54:26.309Z,1.60
2024-02-14T04:56:57.245Z,1.33
2024-02-14T04:59:27.815Z,1.60
2024-02-14T05:01:57.515Z,1.57
2024-02-14T05:04:25.766Z,1.50
2024-02-14T05:06:57.251Z,1.50
2024-02-14T05:09:28.546Z,1.58
2024-02-14T05:11:56.566Z,1.30
2024-02-14T05:14:24.804Z,1.83
2024-02-14T05:16:53.009Z,2.07
2024-02-14T05:19:23.136Z,1.80
2024-02-14T05:21:51.462Z,1.73
2024-02-14T05:24:19.928Z,1.70
2024-02-14T05:26:49.657Z,1.50
2024-02-14T05:29:19.959Z,1.80
2024-02-14T05:31:49.952Z,1.60
2024-02-14T05:34:18.387Z,1.80
2024-02-14T05:36:48.057Z,2.00
2024-02-14T05:39:17.283Z,1.83
2024-02-14T05:41:45.835Z,2.43
2024-02-14T05:44:15.288Z,1.60
2024-02-14T05:46:43.578Z,1.70
2024-02-14T05:49:11.941Z,2.10
2024-02-14T05:51:39.979Z,1.77
2024-02-14T05:54:08.197Z,1.57
2024-02-14T05:56:36.243Z,1.70
2024-02-14T05:59:04.527Z,1.90
2024-02-14T06:01:33.957Z,1.80
2024-02-14T06:04:02.376Z,1.80
2024-02-14T06:06:30.418Z,1.93
2024-02-14T06:08:59.213Z,1.60
2024-02-14T06:11:27.716Z,1.50
2024-02-14T06:13:55.930Z,1.70
2024-02-14T06:16:23.920Z,1.43
2024-02-14T06:18:53.597Z,1.40
2024-02-14T06:21:21.738Z,1.20
2024-02-14T06:23:49.843Z,1.53
2024-02-14T06:26:18.944Z,1.50
2024-02-14T06:28:47.381Z,1.70
2024-02-14T06:31:15.416Z,2.13
2024-02-14T06:33:45.295Z,1.60
2024-02-14T06:36:14.797Z,1.77
2024-02-14T06:38:42.905Z,1.60
2024-02-14T06:41:10.893Z,1.50
2024-02-14T06:43:40.522Z,1.73
2024-02-14T06:46:08.502Z,1.27
2024-02-14T06:48:37.035Z,1.40
2024-02-14T06:51:05.517Z,1.40
2024-02-14T06:53:35.152Z,1.57
2024-02-14T06:56:03.221Z,1.13
2024-02-14T06:58:31.346Z,1.30
2024-02-14T07:00:59.477Z,2.57
2024-02-14T07:03:27.664Z,2.50
2024-02-14T07:05:55.873Z,2.40
2024-02-14T07:08:25.196Z,2.73
2024-02-14T07:10:54.753Z,2.47
2024-02-14T07:13:22.859Z,2.10
2024-02-14T07:15:51.113Z,1.27
2024-02-14T07:18:19.420Z,1.17
2024-02-14T07:20:47.558Z,1.23
2024-02-14T07:23:15.547Z,1.27
2024-02-14T07:25:43.589Z,1.43
2024-02-14T07:28:13.306Z,1.03
2024-02-14T07:30:41.658Z,1.17
2024-02-14T07:33:10.757Z,1.30
2024-02-14T07:35:39.480Z,1.20
2024-02-14T07:38:07.615Z,1.70
2024-02-14T07:40:35.590Z,2.27
2024-02-14T07:43:03.638Z,2.30
2024-02-14T07:45:33.125Z,1.97
2024-02-14T07:48:01.271Z,2.07
2024-02-14T07:50:29.855Z,2.40
2024-02-14T07:52:57.819Z,2.37
2024-02-14T07:55:25.879Z,1.90
2024-02-14T07:57:54.838Z,1.80
2024-02-14T08:00:24.699Z,1.93
2024-02-14T08:02:54.120Z,1.60
2024-02-14T08:05:22.186Z,1.77
2024-02-14T08:07:50.315Z,1.67
2024-02-14T08:10:18.407Z,2.30
2024-02-14T08:12:46.466Z,4.57
2024-02-14T08:15:14.581Z,5.73
2024-02-14T08:17:46.600Z,4.30
2024-02-14T08:20:17.085Z,4.07
2024-02-14T08:22:45.164Z,2.80
2024-02-14T08:25:14.042Z,2.10
2024-02-14T08:27:42.013Z,2.20
2024-02-14T08:30:10.724Z,2.53
2024-02-14T08:32:38.984Z,3.30
2024-02-14T08:35:08.726Z,3.43
2024-02-14T08:37:39.419Z,3.50
2024-02-14T08:40:08.514Z,3.23
2024-02-14T08:42:36.493Z,3.53
2024-02-14T08:45:04.793Z,2.40
2024-02-14T08:47:32.954Z,2.07
2024-02-14T08:50:01.058Z,2.47
2024-02-14T08:52:29.658Z,2.17
2024-02-14T08:54:59.088Z,2.00
2024-02-14T08:57:27.529Z,1.60
2024-02-14T08:59:56.341Z,1.70
2024-02-14T09:02:26.603Z,2.37
2024-02-14T09:04:54.672Z,2.67
2024-02-14T09:07:22.692Z,2.67
2024-02-14T09:09:50.784Z,3.13
2024-02-14T09:12:20.195Z,3.30
2024-02-14T09:14:48.244Z,3.90
2024-02-14T09:17:16.610Z,2.77
2024-02-14T09:19:44.775Z,3.10
2024-02-14T09:22:12.743Z,3.40
2024-02-14T09:24:40.795Z,2.63
2024-02-14T09:27:08.793Z,2.70
2024-02-14T09:29:39.568Z,2.47
2024-02-14T09:32:07.962Z,2.50
2024-02-14T09:34:36.779Z,2.00
2024-02-14T09:37:06.851Z,1.87
2024-02-14T09:39:37.889Z,2.13
2024-02-14T09:42:12.029Z,1.80
2024-02-14T09:44:42.565Z,1.50
2024-02-14T09:47:11.534Z,1.63
2024-02-14T09:49:42.109Z,1.60
2024-02-14T09:52:13.936Z,1.70
2024-02-14T09:54:42.643Z,1.80
2024-02-14T09:57:11.356Z,2.00
2024-02-14T09:59:41.447Z,1.70
2024-02-14T10:02:11.406Z,2.00
2024-02-14T10:04:40.321Z,1.80
2024-02-14T10:07:09.845Z,2.10
2024-02-14T10:09:43.438Z,1.90
2024-02-14T10:12:12.150Z,1.93
2024-02-14T10:14:41.736Z,2.40
2024-02-14T10:17:11.095Z,2.80
2024-02-14T10:19:39.157Z,2.83
2024-02-14T10:22:10.081Z,2.30
2024-02-14T10:24:38.046Z,2.17
2024-02-14T10:27:10.330Z,1.90
2024-02-14T10:29:38.585Z,1.53
2024-02-14T10:32:08.265Z,1.80
2024-02-14T10:34:41.118Z,1.33
2024-02-14T10:37:10.593Z,1.50
2024-02-14T10:39:40.995Z,2.13
2024-02-14T10:42:09.100Z,1.50
2024-02-14T10:44:38.681Z,1.40
2024-02-14T10:47:12.976Z,1.13
2024-02-14T10:49:44.804Z,1.50
2024-02-14T10:52:13.656Z,1.27
2024-02-14T10:54:41.865Z,1.30
2024-02-14T10:57:13.004Z,0.87
2024-02-14T10:59:47.173Z,1.00
2024-02-14T11:02:17.564Z,0.77
2024-02-14T11:04:45.946Z,0.70
2024-02-14T11:07:14.421Z,0.70
2024-02-14T11:09:43.283Z,0.60
2024-02-14T11:12:13.160Z,0.50
2024-02-14T11:14:46.438Z,0.60
2024-02-14T11:17:16.238Z,0.70
2024-02-14T11:19:44.513Z,0.60
2024-02-14T11:22:14.365Z,0.93
2024-02-14T11:24:42.658Z,0.70
2024-02-14T11:27:29.308Z,0.67
2024-02-14T11:30:02.639Z,0.73
2024-02-14T11:32:34.089Z,0.57
2024-02-14T11:35:02.200Z,0.70
2024-02-14T11:37:30.884Z,0.60
2024-02-14T11:39:59.537Z,0.70
2024-02-14T11:42:28.639Z,0.70
2024-02-14T11:44:57.736Z,0.70
2024-02-14T11:47:26.579Z,0.50
2024-02-14T11:49:56.086Z,0.70
2024-02-14T11:52:24.880Z,0.50
2024-02-14T11:54:52.894Z,0.53
2024-02-14T11:57:21.065Z,0.57
2024-02-14T11:59:54.194Z,0.50
2024-02-14T12:02:23.315Z,0.40
2024-02-14T12:04:55.062Z,0.40
2024-02-14T12:07:25.852Z,0.50
2024-02-14T12:09:54.242Z,0.50
2024-02-14T12:12:24.122Z,0.70
2024-02-14T12:14:54.298Z,0.60
2024-02-14T12:17:23.328Z,0.60
2024-02-14T12:19:53.202Z,0.67
2024-02-14T12:22:22.659Z,0.50
2024-02-14T12:24:53.473Z,0.50
2024-02-14T12:27:22.375Z,0.50
2024-02-14T12:29:51.054Z,0.30
2024-02-14T12:32:19.555Z,0.50
2024-02-14T12:34:47.721Z,0.60
2024-02-14T12:37:16.502Z,0.40
2024-02-14T12:39:44.503Z,0.70
2024-02-14T12:42:14.095Z,0.50
2024-02-14T12:44:42.274Z,0.50
2024-02-14T12:47:10.335Z,0.60
2024-02-14T12:49:38.549Z,0.40
2024-02-14T12:52:06.832Z,0.50
2024-02-14T12:54:35.130Z,0.40
2024-02-14T12:57:03.526Z,0.30
2024-02-14T12:59:33.101Z,0.60
2024-02-14T13:02:01.951Z,0.47
2024-02-14T13:04:30.007Z,0.40
2024-02-14T13:06:58.005Z,0.30
2024-02-14T13:09:26.153Z,0.30
2024-02-14T13:11:54.715Z,0.40
2024-02-14T13:14:22.722Z,0.40
2024-02-14T13:16:52.319Z,0.43
2024-02-14T13:19:20.824Z,0.60
2024-02-14T13:21:49.494Z,0.30
2024-02-14T13:24:18.414Z,0.60
2024-02-14T13:26:46.667Z,0.57
2024-02-14T13:29:14.979Z,0.57
2024-02-14T13:31:43.248Z,0.50
2024-02-14T13:34:13.220Z,0.40
2024-02-14T13:36:41.429Z,0.70
2024-02-14T13:39:10.017Z,0.50
2024-02-14T13:41:39.097Z,0.57
2024-02-14T13:44:08.569Z,0.50
2024-02-14T13:46:36.725Z,0.50
2024-02-14T13:49:05.066Z,0.50
2024-02-14T13:51:34.438Z,0.30
2024-02-14T13:54:02.506Z,0.57
2024-02-14T13:56:30.482Z,0.60
2024-02-14T13:58:58.692Z,0.70
2024-02-14T14:01:27.644Z,0.50
2024-02-14T14:03:57.019Z,0.70
2024-02-14T14:06:25.919Z,0.60
2024-02-14T14:08:56.011Z,0.77
2024-02-14T14:11:24.082Z,0.87
2024-02-14T14:13:52.156Z,1.20
2024-02-14T14:16:22.781Z,1.27
2024-02-14T14:18:54.581Z,0.93
2024-02-14T14:21:23.320Z,0.80
2024-02-14T14:23:51.460Z,0.70
2024-02-14T14:26:21.056Z,0.70
2024-02-14T14:28:49.066Z,0.53
2024-02-14T14:31:17.076Z,0.50
2024-02-14T14:33:45.254Z,0.90
2024-02-14T14:36:13.304Z,0.77
2024-02-14T14:38:42.038Z,0.70
2024-02-14T14:41:11.496Z,0.73
2024-02-14T14:43:41.408Z,0.90
2024-02-14T14:46:09.371Z,0.63
2024-02-14T14:48:37.500Z,0.70
2024-02-14T14:51:06.048Z,0.60
2024-02-14T14:53:35.345Z,0.67
2024-02-14T14:56:03.922Z,0.80
2024-02-14T14:58:34.672Z,0.70
2024-02-14T15:01:05.946Z,0.90
2024-02-14T15:03:34.333Z,0.80
2024-02-14T15:06:02.504Z,1.10
2024-02-14T15:08:30.845Z,0.70
2024-02-14T15:10:59.748Z,0.70
2024-02-14T15:13:28.854Z,0.63
2024-02-14T15:15:58.941Z,0.87
2024-02-14T15:18:28.776Z,0.90
2024-02-14T15:20:56.808Z,0.90
2024-02-14T15:23:24.740Z,1.00
2024-02-14T15:25:53.158Z,0.90
2024-02-14T15:28:27.517Z,0.97
2024-02-14T15:31:13.148Z,0.80
2024-02-14T15:33:42.913Z,0.80
2024-02-14T15:36:12.350Z,1.20
2024-02-14T15:38:40.498Z,0.90
2024-02-14T15:41:08.607Z,0.97
2024-02-14T15:43:37.786Z,1.00
2024-02-14T15:46:06.062Z,1.00
2024-02-14T15:48:34.575Z,1.07
2024-02-14T15:51:04.318Z,1.07
2024-02-14T15:53:33.066Z,1.00
2024-02-14T15:56:02.869Z,0.93
2024-02-14T15:58:31.406Z,1.30
2024-02-14T16:00:59.546Z,1.20
2024-02-14T16:03:28.034Z,1.03
2024-02-14T16:05:56.393Z,1.20
2024-02-14T16:08:28.624Z,1.40
2024-02-14T16:10:58.110Z,1.40
2024-02-14T16:13:26.151Z,1.40
2024-02-14T16:15:54.785Z,1.80
2024-02-14T16:18:22.948Z,1.57
2024-02-14T16:20:52.028Z,1.27
2024-02-14T16:23:20.321Z,1.20
2024-02-14T16:25:50.525Z,1.40
2024-02-14T16:28:18.641Z,1.13
2024-02-14T16:30:47.253Z,1.30
2024-02-14T16:33:15.361Z,1.20
2024-02-14T16:35:43.437Z,1.10
2024-02-14T16:38:11.484Z,1.43
2024-02-14T16:40:40.924Z,1.40
2024-02-14T16:43:13.304Z,1.43
2024-02-14T16:45:41.611Z,1.37
2024-02-14T16:48:12.277Z,1.20
2024-02-14T16:50:40.493Z,1.60
2024-02-14T16:53:08.515Z,1.33
2024-02-14T16:55:38.065Z,1.50
2024-02-14T16:58:06.833Z,1.40
2024-02-14T17:00:36.303Z,2.07
2024-02-14T17:03:11.428Z,1.50
2024-02-14T17:05:44.199Z,1.43
2024-02-14T17:08:12.590Z,1.50
2024-02-14T17:10:41.165Z,1.40
2024-02-14T17:13:10.021Z,1.70
2024-02-14T17:15:39.776Z,1.77
2024-02-14T17:18:09.618Z,1.40
2024-02-14T17:20:37.787Z,1.73
2024-02-14T17:23:06.167Z,1.97
2024-02-14T17:25:34.176Z,1.97
2024-02-14T17:28:02.183Z,1.73
2024-02-14T17:30:30.527Z,1.80
2024-02-14T17:33:02.246Z,1.40
2024-02-14T17:35:30.546Z,1.63
2024-02-14T17:37:58.657Z,1.83
2024-02-14T17:40:26.691Z,1.50
2024-02-14T17:42:54.708Z,1.50
2024-02-14T17:45:22.815Z,2.23
2024-02-14T17:47:51.020Z,2.10
2024-02-14T17:50:20.743Z,1.70
2024-02-14T17:52:49.691Z,2.10
2024-02-14T17:55:19.417Z,1.80
2024-02-14T17:57:48.191Z,2.13
2024-02-14T18:00:16.837Z,2.20
2024-02-14T18:02:44.983Z,1.87
2024-02-14T18:05:13.370Z,1.60
2024-02-14T18:07:42.804Z,1.73
2024-02-14T18:10:11.011Z,1.77
2024-02-14T18:12:39.179Z,1.43
2024-02-14T18:15:08.853Z,1.57
2024-02-14T18:17:37.218Z,1.47
2024-02-14T18:20:06.177Z,1.70
2024-02-14T18:22:35.240Z,1.50
2024-02-14T18:25:05.831Z,1.83
2024-02-14T18:27:33.941Z,2.40
2024-02-14T18:30:02.372Z,1.77
2024-02-14T18:32:30.477Z,1.93
2024-02-14T18:34:58.673Z,1.60
2024-02-14T18:37:26.950Z,1.57
2024-02-14T18:39:58.213Z,1.40
2024-02-14T18:42:27.972Z,1.47
2024-02-14T18:44:55.978Z,1.87
2024-02-14T18:47:24.739Z,1.90
2024-02-14T18:49:52.856Z,2.23
2024-02-14T18:52:21.101Z,1.90
2024-02-14T18:54:49.138Z,2.07
2024-02-14T18:57:17.192Z,3.37
2024-02-14T18:59:46.645Z,3.23
2024-02-14T19:02:15.159Z,1.73
2024-02-14T19:04:43.274Z,2.20
2024-02-14T19:07:12.545Z,1.60
2024-02-14T19:09:41.110Z,1.90
2024-02-14T19:12:09.567Z,1.60
2024-02-14T19:14:39.298Z,1.43
2024-02-14T19:17:08.811Z,1.60
2024-02-14T19:19:37.844Z,1.20
2024-02-14T19:22:07.594Z,1.70
2024-02-14T19:24:35.782Z,1.50
2024-02-14T19:27:03.931Z,1.73
2024-02-14T19:29:32.014Z,1.70
2024-02-14T19:32:00.254Z,2.00
2024-02-14T19:34:30.119Z,1.30
2024-02-14T19:36:58.206Z,1.60
2024-02-14T19:39:26.361Z,2.00
2024-02-14T19:41:54.746Z,1.87
2024-02-14T19:44:22.792Z,1.20
2024-02-14T19:46:51.587Z,1.93
2024-02-14T19:49:22.595Z,1.97
2024-02-14T19:51:53.736Z,1.90
2024-02-14T19:54:22.086Z,1.60
2024-02-14T19:56:50.776Z,7.27
2024-02-14T19:59:20.257Z,4.33
2024-02-14T20:01:48.258Z,4.20
2024-02-14T20:04:16.384Z,4.10
2024-02-14T20:06:44.411Z,8.20
2024-02-14T20:09:15.420Z,6.23
2024-02-14T20:11:46.077Z,4.70
2024-02-14T20:14:14.282Z,5.30
2024-02-14T20:16:42.748Z,5.00
2024-02-14T20:19:11.502Z,3.80
2024-02-14T20:21:39.726Z,2.80
2024-02-14T20:24:10.699Z,2.77
2024-02-14T20:26:40.344Z,2.13
2024-02-14T20:29:08.513Z,2.27
2024-02-14T20:31:37.147Z,1.80
2024-02-14T20:34:06.367Z,1.80
2024-02-14T20:36:38.310Z,1.57
2024-02-14T20:39:08.927Z,1.73
2024-02-14T20:41:37.865Z,1.70
2024-02-14T20:44:07.553Z,1.50
2024-02-14T20:46:36.692Z,1.87
2024-02-14T20:49:06.043Z,1.30
2024-02-14T20:51:36.406Z,1.60
2024-02-14T20:54:06.227Z,1.53
2024-02-14T20:56:34.537Z,1.53
2024-02-14T20:59:10.849Z,1.67
2024-02-14T21:01:48.191Z,1.67
2024-02-14T21:04:16.211Z,1.67
2024-02-14T21:06:44.291Z,1.53
2024-02-14T21:09:12.379Z,1.33
2024-02-14T21:11:41.256Z,1.80
2024-02-14T21:14:09.266Z,1.30
2024-02-14T21:16:37.515Z,1.53
2024-02-14T21:19:07.250Z,1.53
2024-02-14T21:21:36.791Z,1.60
2024-02-14T21:24:05.143Z,1.40
2024-02-14T21:26:33.259Z,1.60
2024-02-14T21:29:01.243Z,1.63
2024-02-14T21:31:30.686Z,1.70
2024-02-14T21:33:59.035Z,1.50
2024-02-14T21:36:28.488Z,1.50
2024-02-14T21:38:56.797Z,1.70
2024-02-14T21:41:26.469Z,1.60
2024-02-14T21:43:54.584Z,2.00
2024-02-14T21:46:24.432Z,1.60
2024-02-14T21:48:53.376Z,1.30
2024-02-14T21:51:21.889Z,1.53
2024-02-14T21:53:52.115Z,1.77
2024-02-14T21:56:20.268Z,1.37
2024-02-14T21:58:48.305Z,1.60
2024-02-14T22:01:16.499Z,2.57
2024-02-14T22:03:44.463Z,2.27
2024-02-14T22:06:12.633Z,1.67
2024-02-14T22:08:40.708Z,1.50
2024-02-14T22:11:12.130Z,1.30
2024-02-14T22:13:40.114Z,1.47
2024-02-14T22:16:10.124Z,1.30
2024-02-14T22:18:39.147Z,1.40
2024-02-14T22:21:07.788Z,1.50
2024-02-14T22:23:35.828Z,1.37
2024-02-14T22:26:04.697Z,1.50
2024-02-14T22:28:36.493Z,1.30
2024-02-14T22:31:04.583Z,2.13
2024-02-14T22:33:32.732Z,2.90
2024-02-14T22:36:01.520Z,3.47
2024-02-14T22:38:29.658Z,3.10
2024-02-14T22:40:57.716Z,2.57
2024-02-14T22:43:25.739Z,1.50
2024-02-14T22:45:55.047Z,1.67
2024-02-14T22:48:23.443Z,1.50
2024-02-14T22:50:51.986Z,1.57
2024-02-14T22:53:19.978Z,1.50
2024-02-14T22:55:49.531Z,1.20
2024-02-14T22:58:17.562Z,1.47
2024-02-14T23:00:45.571Z,1.17
2024-02-14T23:03:16.269Z,3.20
2024-02-14T23:05:45.340Z,1.90
2024-02-14T23:08:13.501Z,1.93
2024-02-14T23:10:41.602Z,2.10
2024-02-14T23:13:09.899Z,2.80
2024-02-14T23:15:38.146Z,1.60
2024-02-14T23:18:07.300Z,1.73
2024-02-14T23:20:39.311Z,1.60
2024-02-14T23:23:07.735Z,1.83
2024-02-14T23:25:35.751Z,1.50
2024-02-14T23:28:03.927Z,1.23
2024-02-14T23:30:31.935Z,2.20
2024-02-14T23:33:00.219Z,2.00
2024-02-14T23:35:28.810Z,1.77
2024-02-14T23:37:58.206Z,1.77
2024-02-14T23:40:26.197Z,1.80
2024-02-14T23:43:00.484Z,2.00
2024-02-14T23:45:28.749Z,2.00
2024-02-14T23:47:56.858Z,1.80
2024-02-14T23:50:26.295Z,2.10
2024-02-14T23:52:54.415Z,2.13
2024-02-14T23:55:24.033Z,2.00
2024-02-14T23:57:52.761Z,1.60
